CheckWX is a tool to help pilots better visualize weather data.  It is not intended as a substitute for an official pre-flight weather briefing.

05:13:20 UTC

KAPC METAR
Napa County Airport
Napa, California, USA
Current

19 mins ago

KAPC 240454Z AUTO 21005KT 10SM FEW120 08/05 A3030 RMK AO2 SLP251 T00780050
Observed
Feb-24 @ 04:54 UTC
Wind
  • 210° at 5 KTS
Visibility
10 SM
Flight Rules
VFR
Cloud Levels
  • Few at 12,000' AGL
Temperature
C / 46°F
Dewpoint
C / 41°F
Humidity
82%
Altimeter
30.3" Hg
Pressure
1025.1 hPa
Previous

1 hour ago

KAPC 240354Z 28004KT 10SM CLR 09/04 A3030 RMK AO2 SLP252 T00890044
Observed
Feb-24 @ 03:54 UTC
Wind
  • 280° at 4 KTS
Visibility
10 SM
Flight Rules
VFR
Cloud Levels
  • Clear skies
Temperature
C / 48°F
Dewpoint
C / 39°F
Humidity
71%
Altimeter
30.3" Hg
Pressure
1025.2 hPa
Previous

2 hours ago

KAPC 240254Z 21004KT 10SM OVC110 09/05 A3028 RMK AO2 SLP246 T00940050 58001
Observed
Feb-24 @ 02:54 UTC
Wind
  • 210° at 4 KTS
Visibility
10 SM
Flight Rules
VFR
Cloud Levels
  • Overcast at 11,000' AGL
Temperature
C / 48°F
Dewpoint
C / 41°F
Humidity
76%
Altimeter
30.28" Hg
Pressure
1024.6 hPa